Time;durP1;ratioP1;P1;durP2;ratioP2;P2;SDS_P1;SDS_P2;PMS_P1;PMS_P2;Temp;Humidity;BMP_temperature;BMP_pressure;BME280_temperature;BME280_humidity;BME280_pressure;Samples;Min_cycle;Max_cycle;Signal;HPM_P1;HPM_P2
2021/04/11 00:00:48;;;;;;;18.58;12.77;;;6.70;99.90;;;;;;5047514;28;20063;-75
2021/04/11 00:03:20;;;;;;;22.52;14.07;;;6.80;99.90;;;;;;5048664;28;20029;-75
2021/04/11 00:05:46;;;;;;;20.87;13.70;;;6.80;99.90;;;;;;5047474;28;20045;-75
2021/04/11 00:08:14;;;;;;;18.58;12.35;;;6.70;99.90;;;;;;5048608;28;20839;-75
2021/04/11 00:10:43;;;;;;;18.90;12.82;;;6.70;99.90;;;;;;5047281;28;20393;-74
2021/04/11 00:13:15;;;;;;;22.02;13.40;;;6.70;99.90;;;;;;5048561;28;20466;-74
2021/04/11 00:15:40;;;;;;;20.98;14.45;;;6.60;99.90;;;;;;5047418;28;20029;-75
2021/04/11 00:18:06;;;;;;;19.45;12.95;;;6.60;99.90;;;;;;5065326;22;20093;-72
2021/04/11 00:20:32;;;;;;;19.45;13.07;;;6.60;99.90;;;;;;5031027;28;20029;-74
2021/04/11 00:22:57;;;;;;;18.95;12.50;;;6.60;99.90;;;;;;5033420;28;20116;-73
2021/04/11 00:25:28;;;;;;;20.60;12.82;;;6.60;99.90;;;;;;5034516;28;20401;-73
2021/04/11 00:27:54;;;;;;;20.88;13.13;;;6.50;99.90;;;;;;5052414;28;20036;-73
2021/04/11 00:30:20;;;;;;;24.00;13.73;;;6.50;99.90;;;;;;5052254;28;20021;-73
2021/04/11 00:32:49;;;;;;;24.52;15.15;;;6.50;99.90;;;;;;5050774;28;20044;-73
2021/04/11 00:35:16;;;;;;;26.10;15.55;;;6.50;99.90;;;;;;5052004;28;20103;-72
2021/04/11 00:37:41;;;;;;;23.95;14.73;;;6.60;99.90;;;;;;5051925;28;20033;-73
2021/04/11 00:40:18;;;;;;;25.98;15.82;;;6.60;99.90;;;;;;5050691;28;20021;-73
2021/04/11 00:42:47;;;;;;;22.20;14.57;;;6.60;99.90;;;;;;5052095;28;20111;-73
2021/04/11 00:45:34;;;;;;;22.88;14.23;;;6.60;99.90;;;;;;5050795;28;20063;-73
2021/04/11 00:48:01;;;;;;;22.20;14.73;;;6.60;99.90;;;;;;5052143;28;20022;-73
2021/04/11 00:50:27;;;;;;;20.75;13.07;;;6.60;99.90;;;;;;5050705;28;20036;-73
2021/04/11 00:52:53;;;;;;;22.83;14.27;;;6.60;99.90;;;;;;5050552;28;20025;-73
2021/04/11 00:55:21;;;;;;;21.95;14.20;;;6.60;99.90;;;;;;5051753;28;20024;-72
2021/04/11 00:57:48;;;;;;;21.10;13.80;;;6.60;99.90;;;;;;5051951;28;20024;-73
2021/04/11 01:00:15;;;;;;;22.73;14.45;;;6.50;99.90;;;;;;5051568;28;20033;-72
2021/04/11 01:02:41;;;;;;;21.40;13.25;;;6.50;99.90;;;;;;5051455;28;20079;-73
2021/04/11 01:05:29;;;;;;;22.52;13.88;;;6.50;99.90;;;;;;5051443;28;20025;-73
2021/04/11 01:07:56;;;;;;;23.85;13.90;;;6.40;99.90;;;;;;5051503;28;20029;-72
2021/04/11 01:10:28;;;;;;;20.67;13.60;;;6.40;99.90;;;;;;5050213;28;20029;-73
2021/04/11 01:12:54;;;;;;;21.17;13.32;;;6.30;99.90;;;;;;5051626;28;20032;-73
2021/04/11 01:15:32;;;;;;;21.00;13.52;;;6.20;99.90;;;;;;5050211;28;20032;-73
2021/04/11 01:17:58;;;;;;;25.40;13.95;;;6.20;99.90;;;;;;5051241;28;20032;-72
2021/04/11 01:20:26;;;;;;;21.05;12.25;;;6.10;99.90;;;;;;5051241;28;20037;-72
2021/04/11 01:23:10;;;;;;;24.45;13.75;;;6.10;99.90;;;;;;5051524;28;20087;-72
2021/04/11 01:25:38;;;;;;;18.05;12.80;;;6.10;99.90;;;;;;5051160;28;20047;-73
2021/04/11 01:28:10;;;;;;;23.90;13.50;;;6.00;99.90;;;;;;5051111;28;20470;-72
2021/04/11 01:30:37;;;;;;;;;;;6.00;99.90;;;;;;5051836;28;20068;-72
2021/04/11 01:33:06;;;;;;;19.27;12.40;;;5.90;99.90;;;;;;5051423;28;19908;-73
2021/04/11 01:35:32;;;;;;;20.08;13.07;;;5.90;99.90;;;;;;5051060;28;20031;-73
2021/04/11 01:37:59;;;;;;;24.38;13.88;;;5.90;99.90;;;;;;5049826;28;20393;-73
2021/04/11 01:40:29;;;;;;;19.63;13.02;;;5.90;99.90;;;;;;5050970;28;20021;-72
2021/04/11 01:42:55;;;;;;;17.17;11.95;;;5.90;99.90;;;;;;5051345;28;20026;-73
2021/04/11 01:45:21;;;;;;;21.08;12.50;;;5.80;99.90;;;;;;5050871;28;20390;-73
2021/04/11 01:47:47;;;;;;;21.58;12.80;;;5.80;99.90;;;;;;5049438;28;20028;-72
2021/04/11 01:50:13;;;;;;;21.60;12.75;;;5.70;99.90;;;;;;5050885;28;20032;-73
2021/04/11 01:52:40;;;;;;;18.30;13.05;;;5.70;99.90;;;;;;5051054;28;20519;-72
2021/04/11 01:55:08;;;;;;;20.85;14.05;;;5.60;99.90;;;;;;5050608;28;20025;-73
2021/04/11 01:57:36;;;;;;;23.98;14.43;;;5.60;99.90;;;;;;5049506;28;20025;-73
2021/04/11 02:00:11;;;;;;;23.27;14.18;;;5.70;99.90;;;;;;5050383;28;20025;-73
2021/04/11 02:02:37;;;;;;;20.92;12.52;;;5.70;99.90;;;;;;5050540;28;20518;-73
2021/04/11 02:05:11;;;;;;;20.05;12.45;;;5.70;99.90;;;;;;5050543;28;20107;-73
2021/04/11 02:07:36;;;;;;;21.02;12.07;;;5.60;99.90;;;;;;5050418;28;20112;-72
2021/04/11 02:10:06;;;;;;;21.98;14.18;;;5.60;99.90;;;;;;5049136;28;20064;-72
2021/04/11 02:12:34;;;;;;;24.58;15.20;;;5.60;99.90;;;;;;5050454;28;20370;-73
2021/04/11 02:15:00;;;;;;;25.73;15.05;;;5.60;99.90;;;;;;5048964;28;20120;-72
2021/04/11 02:17:25;;;;;;;32.15;15.60;;;5.50;99.90;;;;;;5049043;28;20059;-72
2021/04/11 02:19:52;;;;;;;24.05;15.50;;;5.50;99.90;;;;;;5048748;28;20037;-72
2021/04/11 02:22:20;;;;;;;27.90;16.48;;;5.50;99.90;;;;;;5050200;28;20021;-73
2021/04/11 02:24:46;;;;;;;26.23;16.83;;;5.50;99.90;;;;;;5049068;28;20025;-72
2021/04/11 02:27:19;;;;;;;23.58;15.35;;;5.50;99.90;;;;;;5048896;28;20025;-72
2021/04/11 02:29:45;;;;;;;26.77;16.10;;;5.40;99.90;;;;;;5050277;28;20108;-72
2021/04/11 02:32:11;;;;;;;26.13;15.68;;;5.40;99.90;;;;;;5050338;28;20029;-73
2021/04/11 02:34:36;;;;;;;23.40;15.20;;;5.40;99.90;;;;;;5050151;28;20029;-73
2021/04/11 02:37:20;;;;;;;23.90;14.85;;;5.40;99.90;;;;;;5050246;28;20051;-73
2021/04/11 02:39:46;;;;;;;26.33;16.80;;;5.40;99.90;;;;;;5050015;28;20443;-73
2021/04/11 02:42:18;;;;;;;26.10;15.95;;;5.40;99.90;;;;;;5049913;28;20040;-73
2021/04/11 02:44:47;;;;;;;27.10;18.05;;;5.40;99.90;;;;;;5049387;28;20021;-73
2021/04/11 02:47:14;;;;;;;30.90;18.70;;;5.40;99.90;;;;;;5049769;28;20509;-73
2021/04/11 02:49:44;;;;;;;27.67;17.08;;;5.40;99.90;;;;;;5049763;28;20035;-73
2021/04/11 02:52:37;;;;;;;27.30;17.10;;;5.40;99.90;;;;;;5048320;28;20120;-73
2021/04/11 02:55:04;;;;;;;32.17;17.17;;;5.40;99.90;;;;;;5043029;28;20036;-73
2021/04/11 02:57:30;;;;;;;29.60;18.25;;;5.40;99.90;;;;;;5048291;28;20025;-73
2021/04/11 02:59:56;;;;;;;26.90;16.73;;;5.40;99.90;;;;;;5048287;28;20370;-73
2021/04/11 03:02:23;;;;;;;28.23;16.48;;;5.40;99.90;;;;;;5048214;28;20075;-73
2021/04/11 03:04:54;;;;;;;26.45;15.02;;;5.40;99.90;;;;;;5048202;28;20074;-73
2021/04/11 03:07:24;;;;;;;33.95;17.13;;;5.40;99.90;;;;;;5049851;28;20493;-73
2021/04/11 03:10:02;;;;;;;28.77;17.05;;;5.40;99.90;;;;;;5048025;28;20028;-73
2021/04/11 03:12:28;;;;;;;29.85;16.88;;;5.40;99.90;;;;;;5048014;28;20028;-73
2021/04/11 03:14:56;;;;;;;31.45;17.95;;;5.40;99.90;;;;;;5047939;28;20021;-73
2021/04/11 03:17:26;;;;;;;27.30;16.75;;;5.30;99.90;;;;;;5049143;28;20032;-73
2021/04/11 03:20:05;;;;;;;34.03;18.48;;;5.30;99.90;;;;;;5047795;28;20128;-72
2021/04/11 03:22:31;;;;;;;29.10;17.80;;;5.30;99.90;;;;;;5047938;28;20029;-72
2021/04/11 03:24:57;;;;;;;29.70;17.85;;;5.30;99.90;;;;;;5049574;28;20131;-72
2021/04/11 03:27:33;;;;;;;33.55;17.83;;;5.20;99.90;;;;;;5049325;28;20065;-73
2021/04/11 03:30:12;;;;;;;30.02;18.90;;;5.20;99.90;;;;;;5049514;28;20047;-72
2021/04/11 03:32:50;;;;;;;25.60;16.85;;;5.20;99.90;;;;;;5047913;28;20457;-73
2021/04/11 03:35:20;;;;;;;26.45;16.17;;;5.20;99.90;;;;;;5048247;28;20025;-73
2021/04/11 03:37:48;;;;;;;30.67;16.50;;;5.10;99.90;;;;;;5049140;28;20119;-73
2021/04/11 03:40:18;;;;;;;28.88;16.85;;;5.10;99.90;;;;;;5048129;28;20021;-72
2021/04/11 03:42:48;;;;;;;29.27;16.45;;;5.00;99.90;;;;;;5049113;28;20025;-74
2021/04/11 03:45:15;;;;;;;34.03;17.95;;;5.00;99.90;;;;;;5047821;28;20419;-73
2021/04/11 03:47:53;;;;;;;30.02;16.65;;;5.00;99.90;;;;;;5047780;28;20490;-73
2021/04/11 03:50:38;;;;;;;23.08;14.05;;;4.90;99.90;;;;;;5047681;28;20035;-73
2021/04/11 03:53:15;;;;;;;23.70;14.30;;;4.90;99.90;;;;;;5048961;28;20028;-73
2021/04/11 03:55:44;;;;;;;20.70;13.13;;;4.80;99.90;;;;;;5049547;28;20493;-73
2021/04/11 03:58:35;;;;;;;20.58;13.80;;;4.70;99.90;;;;;;5051913;28;20032;-73
2021/04/11 04:01:06;;;;;;;19.63;12.82;;;4.70;99.90;;;;;;5051700;28;20053;-73
2021/04/11 04:03:34;;;;;;;25.60;13.55;;;4.60;99.90;;;;;;5051528;28;20033;-73
2021/04/11 04:06:07;;;;;;;18.75;12.32;;;4.50;99.90;;;;;;5051621;28;20120;-72
2021/04/11 04:08:33;;;;;;;22.45;13.60;;;4.50;99.90;;;;;;5053120;28;20025;-73
2021/04/11 04:11:23;;;;;;;19.25;12.15;;;4.50;99.90;;;;;;5051585;28;20029;-73
2021/04/11 04:13:54;;;;;;;20.10;12.70;;;4.40;99.90;;;;;;5052884;28;20025;-73
2021/04/11 04:16:58;;;;;;;18.13;12.32;;;4.40;99.90;;;;;;5052994;28;20021;-73
2021/04/11 04:19:28;;;;;;;19.33;12.07;;;4.40;99.90;;;;;;5052327;28;20079;-73
2021/04/11 04:22:13;;;;;;;22.80;12.93;;;4.40;99.90;;;;;;5052606;28;20025;-74
2021/04/11 04:24:39;;;;;;;21.15;13.13;;;4.40;99.90;;;;;;5041877;28;20036;-73
2021/04/11 04:27:29;;;;;;;19.90;12.35;;;4.40;99.90;;;;;;5052460;28;20477;-73
2021/04/11 04:30:17;;;;;;;24.00;13.60;;;4.30;99.90;;;;;;5052446;28;20543;-73
2021/04/11 04:33:12;;;;;;;23.08;13.02;;;4.30;99.90;;;;;;5052855;28;20025;-73
2021/04/11 04:36:12;;;;;;;18.38;12.48;;;4.30;99.90;;;;;;5052847;28;20024;-74
2021/04/11 04:38:49;;;;;;;17.98;11.73;;;4.30;99.90;;;;;;5052712;28;20425;-73
2021/04/11 04:41:33;;;;;;;21.02;13.45;;;4.30;99.90;;;;;;5050880;28;20021;-73
2021/04/11 04:44:11;;;;;;;18.42;11.90;;;4.30;99.90;;;;;;5050770;28;20032;-73
2021/04/11 04:46:47;;;;;;;20.90;13.25;;;4.30;99.90;;;;;;5052427;28;20013;-73
2021/04/11 04:49:25;;;;;;;20.42;12.88;;;4.40;99.90;;;;;;5052020;28;20025;-73
2021/04/11 04:51:58;;;;;;;19.45;12.07;;;4.40;99.90;;;;;;5051913;28;20029;-73
2021/04/11 04:54:36;;;;;;;19.85;12.63;;;4.40;99.90;;;;;;5050856;28;20025;-73
2021/04/11 04:57:20;;;;;;;19.77;11.57;;;4.50;99.90;;;;;;5052194;28;20036;-73
2021/04/11 05:00:03;;;;;;;19.83;12.85;;;4.60;99.90;;;;;;5050486;28;20024;-73
2021/04/11 05:02:37;;;;;;;17.33;11.70;;;4.60;99.90;;;;;;5052052;28;20029;-73
2021/04/11 05:05:07;;;;;;;22.20;11.23;;;4.70;99.90;;;;;;5050448;28;20072;-73
2021/04/11 05:07:39;;;;;;;19.15;11.75;;;4.80;99.90;;;;;;5051262;28;20025;-74
2021/04/11 05:10:12;;;;;;;15.07;11.77;;;4.80;99.90;;;;;;5051905;28;20025;-73
2021/04/11 05:12:44;;;;;;;;;;;4.90;99.90;;;;;;5051094;28;20037;-73
2021/04/11 05:15:19;;;;;;;19.92;11.65;;;5.00;99.90;;;;;;5051700;28;20293;-73
2021/04/11 05:17:55;;;;;;;17.20;11.60;;;5.00;99.90;;;;;;5051641;28;20021;-73
2021/04/11 05:20:26;;;;;;;15.82;11.15;;;5.20;99.90;;;;;;5051602;28;20029;-73
2021/04/11 05:22:59;;;;;;;16.73;11.77;;;5.30;99.90;;;;;;5051821;28;20500;-73
2021/04/11 05:25:52;;;;;;;16.73;11.48;;;5.40;99.90;;;;;;5050316;28;20513;-73
2021/04/11 05:28:55;;;;;;;15.55;10.77;;;5.60;99.90;;;;;;5051548;28;20035;-74
2021/04/11 05:31:29;;;;;;;17.42;10.95;;;5.70;99.90;;;;;;5050268;28;20033;-74
2021/04/11 05:33:56;;;;;;;15.85;11.90;;;5.80;99.90;;;;;;5051275;28;20029;-73
2021/04/11 05:36:32;;;;;;;18.27;11.48;;;6.00;99.90;;;;;;5051477;28;20063;-73
2021/04/11 05:39:08;;;;;;;16.23;10.93;;;6.10;99.90;;;;;;5051265;28;20017;-73
2021/04/11 05:41:46;;;;;;;14.95;10.73;;;6.20;99.90;;;;;;5051480;28;20047;-73
2021/04/11 05:44:17;;;;;;;18.88;11.70;;;6.40;99.90;;;;;;5051253;28;20044;-73
2021/04/11 05:47:00;;;;;;;19.52;11.50;;;6.50;99.90;;;;;;5049826;28;20086;-74
2021/04/11 05:49:31;;;;;;;;;;;6.70;99.90;;;;;;5050328;28;20021;-73
2021/04/11 05:52:01;;;;;;;18.08;11.55;;;6.90;99.90;;;;;;5051162;28;20012;-73
2021/04/11 05:54:30;;;;;;;21.08;11.57;;;7.10;99.90;;;;;;5049708;28;20104;-73
2021/04/11 05:57:05;;;;;;;15.00;10.68;;;7.30;99.90;;;;;;5050665;28;20492;-73
2021/04/11 05:59:45;;;;;;;17.70;10.70;;;7.60;99.90;;;;;;5050752;28;20025;-73
2021/04/11 06:02:18;;;;;;;14.30;8.98;;;7.80;99.90;;;;;;5049801;28;20025;-73
2021/04/11 06:04:53;;;;;;;13.07;8.38;;;8.00;99.90;;;;;;5051313;28;20036;-73
2021/04/11 06:07:28;;;;;;;13.45;8.35;;;8.10;99.90;;;;;;5051054;28;20047;-73
2021/04/11 06:10:01;;;;;;;11.27;8.15;;;8.30;99.90;;;;;;5049505;28;20035;-73
2021/04/11 06:12:55;;;;;;;11.85;8.10;;;8.50;99.90;;;;;;5050395;28;20111;-74
2021/04/11 06:15:39;;;;;;;11.32;7.47;;;8.70;99.90;;;;;;5050574;28;20037;-74
2021/04/11 06:20:51;;;;;;;12.38;8.23;;;9.20;99.90;;;;;;5087682;28;20051;-74
2021/04/11 06:23:16;;;;;;;11.60;7.43;;;9.30;99.90;;;;;;5090694;28;20514;-74
2021/04/11 06:26:05;;;;;;;13.70;7.65;;;9.50;99.90;;;;;;5090232;28;20060;-75
2021/04/11 06:28:48;;;;;;;9.95;7.38;;;9.60;99.90;;;;;;5071984;28;20020;-74
2021/04/11 06:31:20;;;;;;;12.02;7.57;;;9.70;99.90;;;;;;5090226;28;20024;-75
2021/04/11 06:33:50;;;;;;;9.82;7.40;;;9.80;99.90;;;;;;5090376;28;20048;-75
2021/04/11 06:36:22;;;;;;;10.73;7.38;;;9.90;99.90;;;;;;5090304;28;20491;-75
2021/04/11 06:39:00;;;;;;;10.05;7.53;;;10.10;99.90;;;;;;5088786;28;20069;-75
2021/04/11 06:41:56;;;;;;;15.45;9.60;;;10.30;99.90;;;;;;5090348;28;20095;-75
2021/04/11 06:44:40;;;;;;;19.65;10.30;;;10.50;99.90;;;;;;5090528;28;20028;-74
2021/04/11 06:47:43;;;;;;;14.48;9.60;;;10.40;99.90;;;;;;5088642;28;20024;-75
2021/04/11 06:50:53;;;;;;;16.75;9.57;;;10.70;99.90;;;;;;5089885;28;20059;-75
2021/04/11 06:53:46;;;;;;;15.73;8.98;;;10.90;99.90;;;;;;5090355;28;20024;-75
2021/04/11 06:56:30;;;;;;;10.25;6.30;;;11.00;99.90;;;;;;5088507;28;20020;-75
2021/04/11 06:59:07;;;;;;;11.77;7.05;;;11.10;99.90;;;;;;5088831;28;20031;-74
2021/04/11 07:01:42;;;;;;;13.95;7.32;;;11.10;99.90;;;;;;5089612;28;20027;-75
2021/04/11 07:04:27;;;;;;;11.13;7.30;;;11.30;99.90;;;;;;5090776;28;20420;-75
2021/04/11 07:07:12;;;;;;;10.15;6.65;;;11.50;99.90;;;;;;5088320;28;20041;-75
2021/04/11 07:10:22;;;;;;;10.20;7.20;;;11.70;99.90;;;;;;5089669;28;20028;-75
2021/04/11 07:13:22;;;;;;;10.02;6.60;;;12.00;99.90;;;;;;5089428;28;20110;-74
2021/04/11 07:16:00;;;;;;;8.93;6.28;;;12.10;99.90;;;;;;5067370;28;20519;-75
2021/04/11 07:18:47;;;;;;;7.50;5.65;;;12.40;99.90;;;;;;5089580;28;20099;-75
2021/04/11 07:21:15;;;;;;;10.00;6.30;;;12.70;99.90;;;;;;5088273;28;20209;-75
2021/04/11 07:23:44;;;;;;;9.60;5.82;;;13.00;99.90;;;;;;5089600;28;20027;-75
2021/04/11 07:26:38;;;;;;;10.10;5.85;;;13.30;99.90;;;;;;5089370;28;20035;-75
2021/04/11 07:29:07;;;;;;;8.05;5.80;;;13.60;99.90;;;;;;5088035;28;20035;-75
2021/04/11 07:32:09;;;;;;;8.40;5.68;;;13.70;99.20;;;;;;5091516;28;20365;-75
2021/04/11 07:35:02;;;;;;;8.03;6.10;;;14.00;96.20;;;;;;5092182;28;20560;-74
2021/04/11 07:38:01;;;;;;;6.55;5.10;;;14.10;95.00;;;;;;5092200;28;20092;-75
2021/04/11 07:40:45;;;;;;;7.13;5.55;;;14.40;93.90;;;;;;5093245;28;20031;-76
2021/04/11 07:43:44;;;;;;;6.45;5.22;;;14.70;95.30;;;;;;5093552;28;20032;-76
2021/04/11 07:46:24;;;;;;;7.05;4.78;;;15.20;90.60;;;;;;5092015;28;20026;-76
2021/04/11 07:49:11;;;;;;;8.90;4.90;;;15.50;85.10;;;;;;5092012;28;20031;-77
2021/04/11 07:52:18;;;;;;;6.55;4.50;;;15.80;84.20;;;;;;5091814;28;20031;-76
2021/04/11 07:54:59;;;;;;;8.85;4.78;;;16.30;77.00;;;;;;5093135;28;20021;-74
2021/04/11 07:57:39;;;;;;;8.48;5.32;;;16.80;74.00;;;;;;5093076;28;20073;-76
2021/04/11 08:00:39;;;;;;;7.20;4.85;;;17.20;70.10;;;;;;5092923;28;20027;-76
2021/04/11 08:03:29;;;;;;;5.47;4.65;;;17.40;67.00;;;;;;5093327;28;20024;-76
2021/04/11 08:06:23;;;;;;;5.55;4.28;;;17.60;66.60;;;;;;5092936;28;20060;-74
2021/04/11 08:09:03;;;;;;;6.05;4.47;;;17.80;62.80;;;;;;5093076;28;20422;-74
2021/04/11 08:12:04;;;;;;;6.22;4.50;;;18.00;63.10;;;;;;5093173;28;20020;-74
2021/04/11 08:14:44;;;;;;;6.13;4.18;;;18.80;61.70;;;;;;5076689;28;20039;-74
2021/04/11 08:17:16;;;;;;;6.20;4.10;;;20.20;56.20;;;;;;5092984;28;20043;-74
2021/04/11 08:19:49;;;;;;;7.15;3.90;;;22.40;49.40;;;;;;5092560;28;20555;-75
2021/04/11 08:23:03;;;;;;;7.07;3.95;;;24.90;42.90;;;;;;5092821;28;20028;-75
2021/04/11 08:25:42;;;;;;;5.80;4.13;;;27.40;37.90;;;;;;5092801;28;20020;-75
2021/04/11 08:28:26;;;;;;;9.60;4.43;;;29.60;33.10;;;;;;5092579;28;20028;-76
2021/04/11 08:31:22;;;;;;;5.90;3.40;;;31.00;31.30;;;;;;5092522;28;20028;-75
2021/04/11 08:33:56;;;;;;;7.85;3.85;;;32.60;29.20;;;;;;5092420;28;20059;-75
2021/04/11 08:36:49;;;;;;;5.28;2.97;;;33.40;27.40;;;;;;5091159;28;20016;-75
2021/04/11 08:39:38;;;;;;;5.22;3.20;;;34.30;26.40;;;;;;5092122;28;20017;-75
2021/04/11 08:42:31;;;;;;;3.28;2.88;;;34.20;25.00;;;;;;5091987;28;20051;-74
2021/04/11 08:45:02;;;;;;;5.57;2.60;;;33.30;24.40;;;;;;5090820;28;20054;-74
2021/04/11 08:47:49;;;;;;;4.85;2.70;;;34.30;24.60;;;;;;5092057;28;20028;-74
2021/04/11 08:50:18;;;;;;;2.63;2.15;;;34.90;23.90;;;;;;5091934;28;20024;-75
2021/04/11 08:53:10;;;;;;;3.38;2.38;;;35.70;23.70;;;;;;5091912;28;20511;-75
2021/04/11 08:55:48;;;;;;;3.30;2.42;;;34.70;25.00;;;;;;5091851;28;20029;-75
2021/04/11 08:58:38;;;;;;;5.10;2.70;;;32.90;26.80;;;;;;5092004;28;20020;-75
2021/04/11 09:01:35;;;;;;;3.90;2.40;;;30.50;27.60;;;;;;5091752;28;20012;-74
2021/04/11 09:04:29;;;;;;;3.97;2.65;;;28.60;29.40;;;;;;5091793;28;20481;-75
2021/04/11 09:07:09;;;;;;;4.70;2.10;;;28.00;30.90;;;;;;5091579;28;20020;-75
2021/04/11 09:09:59;;;;;;;3.53;2.15;;;28.90;29.50;;;;;;5091645;28;20068;-74
2021/04/11 09:12:45;;;;;;;3.17;1.90;;;32.60;26.10;;;;;;5090011;28;20110;-75
2021/04/11 09:15:37;;;;;;;2.92;1.90;;;36.10;23.20;;;;;;5092066;28;20077;-75
2021/04/11 09:18:27;;;;;;;3.28;2.10;;;38.30;21.40;;;;;;5090263;28;20020;-75
2021/04/11 09:21:16;;;;;;;2.90;2.20;;;37.10;20.60;;;;;;5091448;28;20130;-75
2021/04/11 09:24:23;;;;;;;2.35;1.70;;;38.00;20.70;;;;;;5091464;28;20384;-75
2021/04/11 09:27:23;;;;;;;2.65;2.00;;;38.50;19.60;;;;;;5049003;28;20017;-75
2021/04/11 09:29:56;;;;;;;2.38;1.40;;;37.60;20.00;;;;;;5091876;28;20393;-75
2021/04/11 09:32:40;;;;;;;2.38;1.40;;;39.80;19.60;;;;;;5090553;28;20030;-74
2021/04/11 09:35:25;;;;;;;3.08;1.52;;;39.10;19.30;;;;;;5091226;28;20020;-74
2021/04/11 09:38:33;;;;;;;2.55;1.65;;;38.00;19.90;;;;;;5089755;28;20024;-74
2021/04/11 09:41:04;;;;;;;2.90;1.52;;;38.60;20.00;;;;;;5090997;28;20553;-74
2021/04/11 09:43:54;;;;;;;1.90;1.67;;;37.90;18.80;;;;;;5091121;28;20032;-74
2021/04/11 09:46:34;;;;;;;1.60;1.40;;;39.00;19.60;;;;;;5090931;28;20028;-74
2021/04/11 09:49:34;;;;;;;4.22;2.05;;;41.20;18.70;;;;;;5090909;28;20031;-74
2021/04/11 09:52:37;;;;;;;1.92;1.50;;;40.00;18.20;;;;;;5090963;28;20577;-74
2021/04/11 09:55:11;;;;;;;;;;;41.40;18.20;;;;;;5090095;28;20624;-74
2021/04/11 09:58:14;;;;;;;3.78;1.70;;;41.10;18.00;;;;;;5090691;28;19904;-75
2021/04/11 10:00:50;;;;;;;4.25;1.50;;;42.40;18.10;;;;;;5090680;28;20159;-75
2021/04/11 10:03:54;;;;;;;2.03;1.30;;;41.50;17.90;;;;;;5090618;28;20027;-75
2021/04/11 10:06:41;;;;;;;1.70;1.40;;;43.00;17.30;;;;;;5090837;28;20056;-75
2021/04/11 10:09:20;;;;;;;2.10;1.48;;;42.30;16.60;;;;;;5090412;28;20138;-75
2021/04/11 10:11:58;;;;;;;2.55;1.50;;;43.40;17.00;;;;;;5090365;28;20421;-75
2021/04/11 10:14:35;;;;;;;1.73;1.45;;;43.30;16.80;;;;;;5090398;28;20035;-74
2021/04/11 10:17:38;;;;;;;1.70;1.60;;;44.20;17.10;;;;;;5090651;28;20031;-75
2021/04/11 10:20:13;;;;;;;1.90;1.13;;;44.30;16.20;;;;;;5089963;28;20059;-75
2021/04/11 10:22:45;;;;;;;2.00;1.40;;;44.00;16.50;;;;;;5090217;28;20024;-75
2021/04/11 10:25:25;;;;;;;3.08;1.10;;;44.70;16.30;;;;;;5090145;28;20089;-75
2021/04/11 10:28:06;;;;;;;1.75;1.23;;;43.30;15.50;;;;;;5090516;28;20107;-75
2021/04/11 10:30:34;;;;;;;0.80;0.80;;;43.80;16.80;;;;;;5090047;28;20027;-74
2021/04/11 10:33:18;;;;;;;0.98;0.88;;;40.10;16.80;;;;;;5090548;28;20024;-74
2021/04/11 10:35:58;;;;;;;1.08;0.80;;;40.90;17.30;;;;;;5089932;28;20396;-74
2021/04/11 10:38:42;;;;;;;1.20;1.10;;;42.50;17.20;;;;;;5090101;28;20027;-75
2021/04/11 10:41:30;;;;;;;1.42;1.17;;;45.00;17.00;;;;;;5090313;28;20396;-75
2021/04/11 10:44:16;;;;;;;1.33;1.20;;;46.00;15.70;;;;;;5090300;28;20020;-75
2021/04/11 10:47:05;;;;;;;2.83;1.13;;;45.00;14.70;;;;;;5089852;28;20072;-75
2021/04/11 10:49:41;;;;;;;1.20;0.90;;;45.90;15.50;;;;;;5089921;28;20044;-75
2021/04/11 10:52:32;;;;;;;2.03;1.20;;;44.80;15.70;;;;;;5089703;28;20020;-75
2021/04/11 10:55:38;;;;;;;1.55;1.00;;;45.70;15.20;;;;;;5083859;28;20039;-75
2021/04/11 10:58:31;;;;;;;1.45;0.98;;;46.80;15.60;;;;;;5089606;28;20028;-75
2021/04/11 11:01:10;;;;;;;1.35;0.90;;;48.00;14.90;;;;;;5089825;28;20056;-75
2021/04/11 11:04:18;;;;;;;1.50;0.98;;;48.60;14.60;;;;;;5089608;28;20024;-75
2021/04/11 11:06:55;;;;;;;1.20;1.00;;;46.20;14.50;;;;;;5083273;28;20040;-75
2021/04/11 11:09:39;;;;;;;1.08;0.90;;;45.70;15.20;;;;;;5089706;28;20020;-75
2021/04/11 11:12:16;;;;;;;1.60;0.90;;;44.80;15.70;;;;;;5089370;28;20097;-75
2021/04/11 11:15:03;;;;;;;1.88;0.90;;;44.20;16.20;;;;;;5089447;28;20187;-75
2021/04/11 11:18:18;;;;;;;1.90;1.73;;;44.10;16.50;;;;;;5088065;28;20072;-75
2021/04/11 11:21:03;;;;;;;1.38;1.27;;;44.90;16.20;;;;;;5046903;28;20059;-75
2021/04/11 11:24:06;;;;;;;1.40;1.30;;;46.10;15.50;;;;;;5086090;28;20511;-76
2021/04/11 11:26:58;;;;;;;1.30;1.10;;;47.20;15.50;;;;;;5089635;28;20024;-75
2021/04/11 11:29:45;;;;;;;1.00;0.93;;;47.50;15.90;;;;;;5088031;28;20048;-75
2021/04/11 11:32:24;;;;;;;0.90;0.90;;;47.20;14.80;;;;;;5088092;28;20030;-75
2021/04/11 11:34:58;;;;;;;0.90;0.82;;;48.10;15.30;;;;;;5089293;28;20028;-75
2021/04/11 11:37:40;;;;;;;3.03;0.90;;;49.30;14.90;;;;;;5087972;28;20028;-75
2021/04/11 11:40:52;;;;;;;1.30;1.00;;;48.00;14.50;;;;;;5089243;28;20024;-75
2021/04/11 11:43:36;;;;;;;2.45;1.10;;;46.70;14.70;;;;;;5084954;28;20032;-75
2021/04/11 11:46:36;;;;;;;1.52;1.20;;;45.20;15.60;;;;;;5089806;28;20016;-75
2021/04/11 11:49:17;;;;;;;1.20;1.00;;;46.90;15.40;;;;;;5089407;28;20024;-74
2021/04/11 11:51:54;;;;;;;2.35;1.40;;;46.20;15.30;;;;;;5089645;28;20027;-74
2021/04/11 11:54:29;;;;;;;1.73;1.20;;;48.30;15.80;;;;;;5089708;28;20023;-74
2021/04/11 11:57:15;;;;;;;1.15;0.95;;;48.80;14.70;;;;;;5089509;28;20106;-75
2021/04/11 11:59:45;;;;;;;2.08;1.08;;;48.70;14.30;;;;;;5089106;28;20020;-74
2021/04/11 12:02:23;;;;;;;1.83;1.08;;;48.70;14.50;;;;;;5090101;28;20028;-74
2021/04/11 12:05:13;;;;;;;1.33;0.90;;;46.00;14.10;;;;;;5089076;28;20023;-74
2021/04/11 12:08:00;;;;;;;1.50;1.00;;;45.10;16.80;;;;;;5089184;28;20016;-74
2021/04/11 12:10:37;;;;;;;1.23;0.90;;;46.50;16.00;;;;;;5088773;28;20077;-74
2021/04/11 12:13:15;;;;;;;1.30;0.85;;;47.60;15.10;;;;;;5087747;28;20466;-74
2021/04/11 12:15:52;;;;;;;2.22;1.10;;;47.50;15.20;;;;;;5089105;28;20024;-74
2021/04/11 12:18:22;;;;;;;1.25;1.10;;;44.80;14.80;;;;;;5088947;28;20085;-74
2021/04/11 12:21:13;;;;;;;1.05;0.80;;;45.60;15.70;;;;;;5085599;22;20054;-76
2021/04/11 12:23:45;;;;;;;1.95;1.00;;;44.90;15.30;;;;;;5054211;28;20033;-77
2021/04/11 12:26:19;;;;;;;1.02;0.98;;;46.00;15.20;;;;;;5072328;28;20413;-77
2021/04/11 12:28:47;;;;;;;1.75;0.82;;;47.30;15.50;;;;;;5072059;28;20020;-77
2021/04/11 12:31:34;;;;;;;1.15;1.05;;;49.10;15.00;;;;;;5072209;28;20025;-77
2021/04/11 12:34:02;;;;;;;2.08;0.90;;;47.40;14.50;;;;;;5054149;28;20021;-76
2021/04/11 12:36:35;;;;;;;1.20;0.80;;;44.80;16.20;;;;;;5072533;28;20024;-76
2021/04/11 12:39:21;;;;;;;2.22;0.82;;;43.00;16.40;;;;;;5072165;28;20024;-77
2021/04/11 12:42:22;;;;;;;1.00;0.90;;;42.00;17.60;;;;;;5053905;28;20097;-76
2021/04/11 12:45:20;;;;;;;0.93;0.60;;;41.90;17.60;;;;;;5039218;28;20040;-76
2021/04/11 12:47:54;;;;;;;1.35;0.88;;;42.60;16.90;;;;;;5071858;28;20044;-76
2021/04/11 12:50:31;;;;;;;1.02;0.80;;;40.80;16.50;;;;;;5053777;28;20409;-76
2021/04/11 12:53:06;;;;;;;1.73;0.70;;;41.40;16.80;;;;;;5072063;28;20397;-76
2021/04/11 12:55:57;;;;;;;0.60;0.60;;;41.80;16.50;;;;;;5071658;28;20504;-76
2021/04/11 12:58:31;;;;;;;1.08;0.88;;;44.20;16.20;;;;;;5053083;28;20033;-77
2021/04/11 13:01:08;;;;;;;1.25;0.90;;;47.20;15.10;;;;;;5053498;28;20040;-76
2021/04/11 13:04:20;;;;;;;0.80;0.80;;;47.00;14.80;;;;;;5053520;28;20031;-77
2021/04/11 13:06:58;;;;;;;0.80;0.60;;;47.00;15.00;;;;;;5034594;28;20145;-77
2021/04/11 13:09:53;;;;;;;2.40;0.90;;;45.80;15.30;;;;;;5053375;28;20032;-77
2021/04/11 13:12:36;;;;;;;1.05;0.60;;;43.50;15.70;;;;;;5053369;28;20051;-76
2021/04/11 13:15:08;;;;;;;1.42;0.80;;;40.70;17.50;;;;;;5071393;28;20033;-76
2021/04/11 13:17:56;;;;;;;0.70;0.50;;;37.30;18.70;;;;;;5071326;28;20500;-76
2021/04/11 13:20:23;;;;;;;0.68;0.68;;;35.30;20.50;;;;;;5053097;28;20123;-76
2021/04/11 13:23:05;;;;;;;2.00;0.95;;;34.70;21.50;;;;;;5071053;28;20020;-76
2021/04/11 13:25:38;;;;;;;2.35;0.77;;;33.40;22.40;;;;;;5053110;28;20028;-75
2021/04/11 13:28:21;;;;;;;1.60;0.85;;;31.50;23.60;;;;;;5053215;28;20028;-76
2021/04/11 13:31:15;;;;;;;0.75;0.70;;;30.00;25.00;;;;;;5071307;28;20166;-75
2021/04/11 13:33:51;;;;;;;1.60;0.80;;;28.90;26.00;;;;;;5052534;28;20545;-76
2021/04/11 13:36:37;;;;;;;0.80;0.77;;;28.70;26.30;;;;;;5053033;28;20029;-75
2021/04/11 13:39:24;;;;;;;1.27;0.70;;;28.40;26.30;;;;;;5070728;28;20017;-75
2021/04/11 13:42:15;;;;;;;0.80;0.68;;;28.20;26.90;;;;;;5070705;28;20074;-75
2021/04/11 13:45:02;;;;;;;2.30;0.90;;;28.10;27.40;;;;;;5052784;28;20021;-75
2021/04/11 13:47:52;;;;;;;0.90;0.70;;;27.90;27.40;;;;;;5070598;28;20021;-75